Terminal Aerodrome Forecast
Issued by NWS

Home | Current Version | Previous Version | Graphics & Text | Print | Product List | Glossary On
Versions: 1 2 3 4 5 6 7 8 9 10 11 12 13 14 15 16 17 18 19
000
FTUS43 KTOP 241100
TAFFOE
TAF
KFOE 241130Z 2412/2512 14010KT P6SM VCSH OVC016
     FM241600 15013G20KT P6SM SCT007 OVC011
     FM242100 16014G22KT P6SM SCT020 BKN035
      TEMPO 2502/2506 1SM TSRA BKN022CB
     FM250600 18006KT P6SM VCTS OVC035CB=

USA.gov is the U.S. government's official web portal to all federal, state and local government web resources and services.